Time;durP1;ratioP1;P1;durP2;ratioP2;P2;SDS_P1;SDS_P2;PMS_P1;PMS_P2;Temp;Humidity;BMP_temperature;BMP_pressure;BME280_temperature;BME280_humidity;BME280_pressure;Samples;Min_cycle;Max_cycle;Signal;HPM_P1;HPM_P2
2021/09/29 00:02:21;;;;;;;5.00;3.70;;;12.60;99.90;;;;;;4975320;28;20184;-67
2021/09/29 00:04:46;;;;;;;4.70;3.70;;;12.60;99.90;;;;;;4975165;28;20169;-68
2021/09/29 00:07:12;;;;;;;4.67;4.27;;;12.60;99.90;;;;;;4973748;28;20177;-68
2021/09/29 00:09:38;;;;;;;4.03;3.73;;;12.50;99.90;;;;;;4957008;28;20213;-68
2021/09/29 00:12:04;;;;;;;3.30;2.70;;;12.50;99.90;;;;;;4957710;28;20255;-68
2021/09/29 00:14:29;;;;;;;4.43;3.60;;;12.50;99.90;;;;;;4939690;29;20185;-68
2021/09/29 00:16:55;;;;;;;3.23;3.00;;;12.50;99.90;;;;;;4955471;29;20169;-69
2021/09/29 00:19:21;;;;;;;4.30;3.73;;;12.50;99.90;;;;;;4955536;29;20274;-68
2021/09/29 00:21:46;;;;;;;4.23;3.90;;;12.60;99.90;;;;;;4938521;29;20197;-67
2021/09/29 00:24:12;;;;;;;3.57;3.27;;;12.60;99.90;;;;;;4974126;28;20313;-68
2021/09/29 00:26:38;;;;;;;3.43;2.77;;;12.60;99.90;;;;;;4947874;29;20229;-68
2021/09/29 00:29:04;;;;;;;4.33;3.93;;;12.60;99.90;;;;;;4954968;28;20715;-68
2021/09/29 00:34:06;;;;;;;4.72;4.32;;;12.60;99.90;;;;;;4967603;28;20178;-67
2021/09/29 00:36:34;;;;;;;3.60;3.33;;;12.70;99.90;;;;;;4974581;28;20173;-68
2021/09/29 00:39:00;;;;;;;3.75;3.40;;;12.70;99.90;;;;;;4974713;28;20204;-66
2021/09/29 00:41:25;;;;;;;8.50;4.37;;;12.70;99.90;;;;;;4974746;28;20196;-69
2021/09/29 00:43:51;;;;;;;6.57;4.53;;;12.70;99.90;;;;;;4974809;28;20168;-68
2021/09/29 00:46:17;;;;;;;4.87;4.17;;;12.70;99.90;;;;;;4972949;28;20648;-68
2021/09/29 00:48:42;;;;;;;7.37;4.80;;;12.70;99.90;;;;;;4973591;28;20673;-68
2021/09/29 00:51:10;;;;;;;5.17;3.93;;;12.70;99.90;;;;;;4974276;28;20667;-68
2021/09/29 00:53:36;;;;;;;4.25;3.92;;;12.70;99.90;;;;;;4957133;28;20177;-68
2021/09/29 00:56:03;;;;;;;4.15;3.75;;;12.80;99.90;;;;;;4970049;28;20644;-68
2021/09/29 00:58:29;;;;;;;6.97;4.47;;;12.70;99.90;;;;;;4954853;29;20532;-67
2021/09/29 01:00:54;;;;;;;4.27;3.87;;;12.80;99.90;;;;;;4955367;29;20254;-67
2021/09/29 01:03:21;;;;;;;5.40;4.53;;;12.70;99.90;;;;;;4955198;29;20184;-67
2021/09/29 01:05:47;;;;;;;7.05;4.20;;;12.70;99.90;;;;;;4955302;29;20190;-67
2021/09/29 01:08:16;;;;;;;4.93;4.50;;;12.70;99.90;;;;;;4957776;28;20254;-68
2021/09/29 01:10:50;;;;;;;4.28;3.88;;;12.60;99.90;;;;;;4973508;28;20440;-67
2021/09/29 01:13:27;;;;;;;6.47;5.03;;;12.60;99.90;;;;;;4966259;28;20557;-67
2021/09/29 01:16:00;;;;;;;5.68;4.10;;;12.60;99.90;;;;;;4955179;29;20508;-67
2021/09/29 01:18:29;;;;;;;4.60;3.92;;;12.60;99.90;;;;;;4954522;29;20554;-68
2021/09/29 01:21:04;;;;;;;5.23;3.77;;;12.60;99.90;;;;;;4955118;29;20236;-68
2021/09/29 01:23:48;;;;;;;4.15;3.50;;;12.60;99.90;;;;;;4954871;29;20387;-68
2021/09/29 01:26:35;;;;;;;5.00;4.43;;;12.60;99.90;;;;;;4963844;28;20231;-67
2021/09/29 01:29:10;;;;;;;4.88;3.95;;;12.60;99.90;;;;;;4973340;28;20472;-67
2021/09/29 01:31:37;;;;;;;4.70;4.30;;;12.60;99.90;;;;;;4968759;28;20710;-67
2021/09/29 01:34:05;;;;;;;4.85;4.35;;;12.60;99.90;;;;;;4954710;29;20402;-68
2021/09/29 01:36:32;;;;;;;4.28;3.88;;;12.60;99.90;;;;;;4955614;28;20177;-68
2021/09/29 01:38:59;;;;;;;6.28;4.75;;;12.60;99.90;;;;;;4965481;28;20208;-68
2021/09/29 01:41:31;;;;;;;5.50;4.00;;;12.70;99.90;;;;;;4963778;28;20197;-68
2021/09/29 01:43:57;;;;;;;7.10;4.03;;;12.70;99.90;;;;;;4958603;29;20785;-67
2021/09/29 01:46:28;;;;;;;7.27;4.47;;;12.60;99.90;;;;;;4958509;29;20503;-68
2021/09/29 01:49:24;;;;;;;4.90;4.40;;;12.60;99.90;;;;;;4958012;29;20468;-67
2021/09/29 01:51:51;;;;;;;5.30;4.80;;;12.60;99.90;;;;;;4958237;29;20616;-68
2021/09/29 01:54:20;;;;;;;5.70;4.43;;;12.60;99.90;;;;;;4958101;28;20922;-67
2021/09/29 01:56:47;;;;;;;4.87;4.47;;;12.60;99.90;;;;;;4970448;28;20272;-67
2021/09/29 01:59:13;;;;;;;5.50;4.13;;;12.70;99.90;;;;;;4958238;29;20964;-67
2021/09/29 02:01:41;;;;;;;4.83;4.00;;;12.70;99.90;;;;;;4958064;28;21294;-67
2021/09/29 02:04:08;;;;;;;4.70;4.30;;;12.70;99.90;;;;;;4958028;29;20915;-67
2021/09/29 02:06:45;;;;;;;4.22;3.85;;;12.60;99.90;;;;;;4957803;29;20177;-67
2021/09/29 02:09:11;;;;;;;6.30;4.07;;;12.60;99.90;;;;;;4957563;28;20224;-67
2021/09/29 02:11:36;;;;;;;4.87;4.20;;;12.60;99.90;;;;;;4977375;28;20264;-67
2021/09/29 02:14:02;;;;;;;6.97;4.60;;;12.60;99.90;;;;;;4960181;28;20197;-68
2021/09/29 02:16:29;;;;;;;5.20;4.80;;;12.60;99.90;;;;;;4959601;28;20184;-68
2021/09/29 02:18:55;;;;;;;5.53;4.90;;;12.60;99.90;;;;;;4957588;29;20433;-67
2021/09/29 02:21:20;;;;;;;6.60;4.97;;;12.60;99.90;;;;;;4967027;28;20186;-67
2021/09/29 02:23:46;;;;;;;6.20;5.60;;;12.70;99.90;;;;;;4959244;28;20179;-67
2021/09/29 02:26:12;;;;;;;5.27;4.77;;;12.70;99.90;;;;;;4976932;28;20177;-67
2021/09/29 02:28:37;;;;;;;7.17;6.33;;;12.80;99.90;;;;;;4976257;28;20285;-67
2021/09/29 02:31:03;;;;;;;5.90;4.33;;;12.80;99.90;;;;;;4976866;28;20631;-67
2021/09/29 02:33:28;;;;;;;9.00;4.93;;;12.90;99.90;;;;;;4976926;28;20169;-67
2021/09/29 02:35:54;;;;;;;7.33;4.90;;;12.90;99.90;;;;;;4968963;28;20183;-67
2021/09/29 02:38:20;;;;;;;4.27;3.87;;;13.00;99.90;;;;;;4968566;28;20350;-67
2021/09/29 02:40:45;;;;;;;5.10;4.57;;;13.00;99.90;;;;;;4969633;28;20273;-68
2021/09/29 02:43:11;;;;;;;3.60;3.27;;;13.10;99.90;;;;;;4957544;29;20238;-67
2021/09/29 02:45:37;;;;;;;4.57;4.07;;;13.10;99.90;;;;;;4958867;28;20534;-67
2021/09/29 02:48:02;;;;;;;4.03;3.63;;;13.20;99.90;;;;;;4975845;28;20177;-67
2021/09/29 02:50:28;;;;;;;7.57;5.57;;;13.20;99.90;;;;;;4969451;28;20588;-67
2021/09/29 02:52:54;;;;;;;6.30;5.60;;;13.20;99.90;;;;;;4956769;28;20187;-67
2021/09/29 02:55:19;;;;;;;4.50;4.00;;;13.20;99.90;;;;;;4957238;29;20185;-67
2021/09/29 02:57:45;;;;;;;5.03;4.47;;;13.30;99.90;;;;;;4970723;28;20197;-69
2021/09/29 03:00:11;;;;;;;6.07;4.40;;;13.30;99.90;;;;;;4976191;28;20627;-67
2021/09/29 03:02:37;;;;;;;5.03;4.50;;;13.40;99.90;;;;;;4976403;28;20195;-67
2021/09/29 03:05:03;;;;;;;4.27;3.87;;;13.40;99.90;;;;;;4971037;28;20435;-67
2021/09/29 03:07:29;;;;;;;5.87;5.27;;;13.40;99.90;;;;;;4956640;29;20191;-67
2021/09/29 03:09:54;;;;;;;5.67;4.97;;;13.50;99.90;;;;;;4957021;28;20474;-68
2021/09/29 03:12:20;;;;;;;5.13;4.70;;;13.50;99.90;;;;;;4956829;29;20189;-68
2021/09/29 03:14:45;;;;;;;4.03;3.63;;;13.50;99.90;;;;;;4956975;29;20175;-68
2021/09/29 03:17:11;;;;;;;4.70;4.30;;;13.60;99.90;;;;;;4974054;28;20202;-68
2021/09/29 03:19:37;;;;;;;3.90;3.60;;;13.60;99.90;;;;;;4976085;28;20270;-67
2021/09/29 03:22:03;;;;;;;5.03;4.20;;;13.60;99.90;;;;;;4975952;28;20229;-68
2021/09/29 03:24:29;;;;;;;4.47;4.17;;;13.70;99.90;;;;;;4975808;28;20426;-68
2021/09/29 03:26:55;;;;;;;5.07;4.57;;;13.70;99.90;;;;;;4973975;28;20430;-67
2021/09/29 03:29:20;;;;;;;4.20;3.63;;;13.70;99.90;;;;;;4975808;28;20290;-67
2021/09/29 03:31:46;;;;;;;6.67;5.30;;;13.80;99.90;;;;;;4959329;28;20211;-68
2021/09/29 03:34:12;;;;;;;5.00;4.50;;;13.80;99.90;;;;;;4956333;29;20239;-68
2021/09/29 03:36:38;;;;;;;4.07;3.43;;;13.80;99.90;;;;;;4956184;29;20212;-68
2021/09/29 03:39:04;;;;;;;4.70;4.27;;;13.80;99.90;;;;;;4956189;28;20454;-67
2021/09/29 03:41:30;;;;;;;5.60;4.60;;;13.90;99.90;;;;;;4956412;29;20765;-68
2021/09/29 03:43:55;;;;;;;5.27;4.83;;;13.80;99.90;;;;;;4956416;29;20898;-68
2021/09/29 03:46:21;;;;;;;4.20;3.80;;;13.80;99.90;;;;;;4956458;29;20191;-68
2021/09/29 03:48:47;;;;;;;4.10;3.70;;;13.90;99.90;;;;;;4955672;29;20769;-67
2021/09/29 03:51:13;;;;;;;4.97;4.10;;;13.90;99.90;;;;;;4955891;29;20278;-67
2021/09/29 03:53:38;;;;;;;5.80;5.20;;;14.00;99.90;;;;;;4962393;28;20517;-68
2021/09/29 03:56:04;;;;;;;6.23;4.80;;;14.00;99.90;;;;;;4968601;28;20186;-67
2021/09/29 03:58:30;;;;;;;5.33;3.67;;;14.00;99.90;;;;;;4974731;28;20650;-67
2021/09/29 04:00:56;;;;;;;5.07;4.57;;;14.00;99.90;;;;;;4975201;28;20425;-67
2021/09/29 04:03:22;;;;;;;4.23;3.83;;;14.00;99.90;;;;;;4975349;28;20233;-67
2021/09/29 04:05:48;;;;;;;4.73;4.23;;;14.00;99.90;;;;;;4957010;28;21012;-67
2021/09/29 04:08:14;;;;;;;4.70;4.07;;;14.00;99.90;;;;;;4973898;28;20199;-66
2021/09/29 04:10:40;;;;;;;4.40;4.00;;;14.00;99.90;;;;;;4936619;29;20495;-67
2021/09/29 04:13:06;;;;;;;3.87;3.57;;;14.00;99.90;;;;;;4936454;29;20447;-67
2021/09/29 04:15:33;;;;;;;5.63;4.03;;;14.10;99.90;;;;;;4950756;28;20426;-67
2021/09/29 04:17:59;;;;;;;6.30;5.03;;;14.10;99.90;;;;;;4974551;28;20179;-68
2021/09/29 04:20:25;;;;;;;4.90;4.27;;;14.10;99.90;;;;;;4972504;28;20438;-67
2021/09/29 04:22:51;;;;;;;6.40;4.57;;;14.10;99.90;;;;;;4955584;29;20193;-68
2021/09/29 04:25:16;;;;;;;5.93;4.30;;;14.10;99.90;;;;;;4955282;29;20199;-68
2021/09/29 04:27:42;;;;;;;4.57;4.17;;;14.10;99.90;;;;;;4955125;29;20965;-66
2021/09/29 04:30:09;;;;;;;5.10;3.40;;;14.20;99.90;;;;;;4955362;29;20738;-67
2021/09/29 04:32:34;;;;;;;3.83;3.47;;;14.20;99.90;;;;;;4955119;28;20234;-67
2021/09/29 04:35:00;;;;;;;4.57;4.17;;;14.20;99.90;;;;;;4956042;28;20431;-67
2021/09/29 04:37:26;;;;;;;3.93;3.53;;;14.30;99.90;;;;;;4942826;28;20523;-67
2021/09/29 04:39:51;;;;;;;3.73;3.33;;;14.30;99.90;;;;;;4972857;28;20206;-68
2021/09/29 04:42:17;;;;;;;6.90;3.97;;;14.30;99.90;;;;;;4974522;28;20191;-68
2021/09/29 04:44:43;;;;;;;3.87;3.53;;;14.30;99.90;;;;;;4974767;28;20207;-68
2021/09/29 04:47:08;;;;;;;4.53;3.00;;;14.30;99.90;;;;;;4939652;28;20196;-67
2021/09/29 04:49:34;;;;;;;2.93;2.73;;;14.30;99.90;;;;;;4935788;29;20221;-67
2021/09/29 04:52:00;;;;;;;3.43;2.77;;;14.30;99.90;;;;;;4973106;28;20199;-68
2021/09/29 04:54:26;;;;;;;3.37;3.00;;;14.20;99.90;;;;;;4974510;28;20406;-68
2021/09/29 04:56:52;;;;;;;3.03;2.30;;;14.20;99.90;;;;;;4973918;28;20901;-69
2021/09/29 04:59:18;;;;;;;5.53;3.60;;;14.10;99.90;;;;;;4974058;28;20197;-68
2021/09/29 05:01:44;;;;;;;3.67;2.50;;;14.10;99.90;;;;;;4970163;28;20654;-68
2021/09/29 05:04:10;;;;;;;3.87;3.57;;;14.10;99.90;;;;;;4953050;28;20578;-68
2021/09/29 05:06:39;;;;;;;4.43;4.03;;;14.10;99.90;;;;;;4961298;28;20424;-68
2021/09/29 05:09:04;;;;;;;6.33;4.93;;;14.10;99.90;;;;;;4971702;28;20470;-68
2021/09/29 05:11:44;;;;;;;5.03;3.27;;;14.00;99.90;;;;;;4954745;28;20507;-67
2021/09/29 05:14:11;;;;;;;3.00;2.77;;;14.00;99.90;;;;;;4955037;28;20181;-67
2021/09/29 05:16:37;;;;;;;4.73;3.90;;;13.90;99.90;;;;;;4970378;28;20940;-67
2021/09/29 05:19:04;;;;;;;3.03;2.83;;;13.90;99.90;;;;;;4978049;28;20469;-68
2021/09/29 05:21:30;;;;;;;3.03;2.83;;;13.80;99.90;;;;;;4978260;28;20459;-68
2021/09/29 05:23:56;;;;;;;4.03;2.80;;;13.80;99.90;;;;;;4977891;28;20420;-69
2021/09/29 05:26:21;;;;;;;3.20;2.97;;;13.70;99.90;;;;;;4960747;28;20455;-68
2021/09/29 05:28:50;;;;;;;3.37;2.63;;;13.60;99.90;;;;;;4958238;29;20751;-68
2021/09/29 05:31:16;;;;;;;2.60;2.40;;;13.60;99.90;;;;;;4941384;29;20668;-68
2021/09/29 05:33:41;;;;;;;2.93;2.73;;;13.60;99.90;;;;;;4964091;28;20764;-67
2021/09/29 05:36:07;;;;;;;2.70;2.50;;;13.60;99.90;;;;;;4977931;28;20407;-68
2021/09/29 05:38:33;;;;;;;3.53;2.70;;;13.50;99.90;;;;;;4977340;28;20188;-67
2021/09/29 05:41:01;;;;;;;3.50;3.20;;;13.50;99.90;;;;;;4961541;28;20192;-69
2021/09/29 05:43:26;;;;;;;4.10;3.70;;;13.50;99.90;;;;;;4941564;29;20183;-67
2021/09/29 05:45:54;;;;;;;3.70;3.40;;;13.50;99.90;;;;;;4958996;28;20952;-71
2021/09/29 05:48:20;;;;;;;6.03;3.50;;;13.40;99.90;;;;;;4957699;29;20198;-70
2021/09/29 05:50:46;;;;;;;3.33;3.03;;;13.40;99.90;;;;;;4958164;29;20458;-71
2021/09/29 05:53:12;;;;;;;2.77;2.57;;;13.30;99.90;;;;;;4958181;29;20908;-71
2021/09/29 05:55:40;;;;;;;3.67;2.43;;;13.20;99.90;;;;;;4965937;28;20483;-76
2021/09/29 05:58:06;;;;;;;4.60;2.67;;;13.30;99.90;;;;;;4959629;28;20842;-68
2021/09/29 06:00:32;;;;;;;2.57;2.37;;;13.30;99.90;;;;;;4977035;28;20436;-68
2021/09/29 06:02:57;;;;;;;3.00;2.80;;;13.30;99.90;;;;;;4977393;28;20189;-70
2021/09/29 06:05:23;;;;;;;3.53;3.33;;;13.40;99.90;;;;;;4967720;28;20180;-68
2021/09/29 06:07:49;;;;;;;4.07;3.60;;;13.60;99.90;;;;;;4977149;28;20629;-67
2021/09/29 06:10:15;;;;;;;4.03;3.53;;;14.10;99.90;;;;;;4977066;28;20219;-68
2021/09/29 06:12:41;;;;;;;3.23;2.70;;;14.60;99.90;;;;;;4974894;28;20510;-67
2021/09/29 06:15:08;;;;;;;3.40;3.10;;;15.00;99.90;;;;;;4974876;28;20849;-67
2021/09/29 06:20:04;;;;;;;5.90;4.43;;;15.60;99.90;;;;;;4976740;28;20458;-68
2021/09/29 06:22:30;;;;;;;3.40;3.10;;;15.70;99.90;;;;;;4957768;28;20396;-66
2021/09/29 06:24:55;;;;;;;2.73;2.23;;;15.80;99.90;;;;;;4970271;28;20965;-67
2021/09/29 06:27:21;;;;;;;2.80;2.60;;;16.10;99.90;;;;;;4959475;28;20266;-68
2021/09/29 06:29:46;;;;;;;2.47;1.90;;;16.50;99.90;;;;;;4976600;28;20205;-69
2021/09/29 06:32:12;;;;;;;3.50;2.70;;;17.00;99.90;;;;;;4971684;28;20265;-70
2021/09/29 06:34:38;;;;;;;3.00;2.43;;;17.40;99.90;;;;;;4976508;28;20205;-70
2021/09/29 06:37:04;;;;;;;2.10;1.87;;;17.60;99.90;;;;;;4947788;29;20190;-69
2021/09/29 06:39:29;;;;;;;2.60;2.40;;;17.70;99.90;;;;;;4972846;28;20370;-68
2021/09/29 06:41:55;;;;;;;2.87;2.67;;;17.80;99.90;;;;;;4976724;28;20184;-68
2021/09/29 06:44:21;;;;;;;2.27;2.07;;;17.80;99.90;;;;;;4971396;28;20198;-67
2021/09/29 06:46:46;;;;;;;2.83;1.97;;;17.70;99.90;;;;;;4973014;28;20286;-69
2021/09/29 06:49:12;;;;;;;2.07;1.97;;;17.70;99.90;;;;;;4976200;28;20217;-69
2021/09/29 06:51:38;;;;;;;1.70;1.60;;;17.70;99.90;;;;;;4966356;28;20194;-68
2021/09/29 06:54:04;;;;;;;2.23;2.13;;;17.50;99.90;;;;;;4957086;29;20181;-68
2021/09/29 06:56:29;;;;;;;1.63;1.53;;;17.40;99.90;;;;;;4945842;28;20847;-69
2021/09/29 06:58:55;;;;;;;3.70;1.93;;;17.60;99.90;;;;;;4937568;29;20486;-66
2021/09/29 07:01:21;;;;;;;1.70;1.37;;;18.00;99.90;;;;;;4948799;28;20180;-66
2021/09/29 07:03:48;;;;;;;2.70;1.80;;;18.70;99.90;;;;;;4975767;28;20659;-67
2021/09/29 07:06:14;;;;;;;1.33;1.33;;;19.60;99.90;;;;;;4976039;28;20867;-66
2021/09/29 07:08:40;;;;;;;2.57;1.53;;;20.50;99.90;;;;;;4975686;28;20474;-67
2021/09/29 07:11:05;;;;;;;1.93;1.60;;;21.40;99.90;;;;;;4975903;28;20176;-66
2021/09/29 07:13:32;;;;;;;1.97;1.57;;;22.30;99.90;;;;;;4960465;28;20433;-66
2021/09/29 07:15:57;;;;;;;1.80;1.70;;;22.90;99.90;;;;;;4957747;28;20188;-65
2021/09/29 07:18:32;;;;;;;1.63;1.53;;;23.20;98.50;;;;;;4961932;28;20418;-68
2021/09/29 07:20:59;;;;;;;1.70;1.60;;;23.10;97.60;;;;;;4975624;28;20236;-67
2021/09/29 07:23:25;;;;;;;3.80;1.90;;;22.80;96.50;;;;;;4965929;28;20412;-67
2021/09/29 07:25:50;;;;;;;1.60;1.50;;;22.50;95.60;;;;;;4950664;29;20399;-68
2021/09/29 07:28:16;;;;;;;2.10;1.60;;;22.20;97.20;;;;;;4955954;28;20402;-66
2021/09/29 07:30:45;;;;;;;1.87;1.50;;;22.20;96.50;;;;;;4955596;28;20266;-67
2021/09/29 07:33:11;;;;;;;3.77;2.90;;;22.60;97.40;;;;;;4956314;29;20177;-66
2021/09/29 07:35:38;;;;;;;1.93;1.83;;;23.30;96.20;;;;;;4961691;28;20530;-68
2021/09/29 07:38:04;;;;;;;2.53;1.40;;;24.00;95.90;;;;;;4975023;28;20418;-70
2021/09/29 07:40:30;;;;;;;1.87;1.70;;;24.70;94.10;;;;;;4970668;28;20535;-69
2021/09/29 07:42:56;;;;;;;1.67;1.57;;;25.30;93.70;;;;;;4955799;29;20771;-67
2021/09/29 07:45:22;;;;;;;1.60;1.50;;;25.90;92.10;;;;;;4955684;29;20752;-66
2021/09/29 07:47:48;;;;;;;1.43;1.33;;;26.60;91.70;;;;;;4955719;29;20442;-67
2021/09/29 07:50:16;;;;;;;1.10;1.10;;;27.10;89.00;;;;;;4955634;29;20475;-65
2021/09/29 07:52:42;;;;;;;1.10;1.00;;;27.70;87.70;;;;;;4965187;28;20188;-67
2021/09/29 07:55:09;;;;;;;1.20;1.13;;;28.20;84.60;;;;;;4970437;28;20420;-66
2021/09/29 07:57:35;;;;;;;1.30;1.20;;;28.40;81.90;;;;;;4953464;28;20424;-67
2021/09/29 08:00:00;;;;;;;1.90;1.37;;;28.80;80.80;;;;;;4965674;28;20747;-67
2021/09/29 08:02:26;;;;;;;1.60;1.50;;;29.10;78.70;;;;;;4975021;28;20211;-68
2021/09/29 08:04:53;;;;;;;1.40;1.10;;;29.70;78.00;;;;;;4975096;28;20179;-68
2021/09/29 08:07:18;;;;;;;1.30;1.20;;;29.90;73.60;;;;;;4961297;28;20259;-67
2021/09/29 08:09:44;;;;;;;1.40;1.30;;;30.00;74.10;;;;;;4955864;29;20500;-67
2021/09/29 08:12:10;;;;;;;1.30;1.20;;;30.30;72.40;;;;;;4955790;29;20177;-67
2021/09/29 08:14:39;;;;;;;1.57;1.27;;;30.70;70.20;;;;;;4955536;29;20654;-67
2021/09/29 08:17:06;;;;;;;1.37;1.27;;;30.70;67.20;;;;;;4955423;29;20596;-67
2021/09/29 08:19:33;;;;;;;1.00;1.00;;;30.50;65.90;;;;;;4938515;29;20766;-67
2021/09/29 08:22:02;;;;;;;1.43;1.23;;;30.60;65.90;;;;;;4972714;28;20974;-67
2021/09/29 08:24:36;;;;;;;1.10;1.10;;;30.70;65.30;;;;;;4974951;28;20415;-67
2021/09/29 08:27:10;;;;;;;1.27;1.10;;;30.90;64.30;;;;;;4974513;28;20416;-67
2021/09/29 08:32:24;;;;;;;1.77;1.67;;;31.00;66.40;;;;;;4974820;28;20404;-67
2021/09/29 08:35:09;;;;;;;1.80;1.70;;;31.30;64.70;;;;;;4972041;28;20432;-66
2021/09/29 08:43:04;;;;;;;0.87;0.87;;;32.20;59.70;;;;;;4968173;28;20628;-68
2021/09/29 08:45:39;;;;;;;1.13;0.97;;;32.40;58.70;;;;;;4955050;29;20396;-66
2021/09/29 08:48:12;;;;;;;0.80;0.80;;;32.10;58.40;;;;;;4954833;29;20397;-67
2021/09/29 08:53:33;;;;;;;1.07;1.00;;;31.20;59.20;;;;;;4955151;29;20409;-66
2021/09/29 09:14:53;;;;;;;1.20;1.10;;;30.30;57.90;;;;;;4954904;29;20480;-66
2021/09/29 09:17:33;;;;;;;1.23;1.10;;;30.20;58.90;;;;;;4956934;28;20582;-65
2021/09/29 09:20:13;;;;;;;1.33;0.93;;;30.40;58.80;;;;;;4964066;28;20495;-67
2021/09/29 09:22:39;;;;;;;0.90;0.90;;;31.10;57.70;;;;;;4956391;28;20432;-67
2021/09/29 09:25:05;;;;;;;0.90;0.90;;;31.40;56.80;;;;;;4955811;28;21006;-66
2021/09/29 09:27:45;;;;;;;0.83;0.83;;;31.60;56.20;;;;;;4954285;29;20196;-66
2021/09/29 09:30:25;;;;;;;0.80;0.80;;;31.60;56.10;;;;;;4954311;29;20563;-66
2021/09/29 09:32:55;;;;;;;3.70;1.80;;;31.70;56.50;;;;;;4955781;28;20432;-65
2021/09/29 09:35:22;;;;;;;0.83;0.83;;;31.30;56.20;;;;;;4955626;28;20503;-67
2021/09/29 09:37:57;;;;;;;1.13;1.07;;;31.30;56.80;;;;;;4954143;29;20463;-66
2021/09/29 09:40:26;;;;;;;2.00;0.90;;;31.50;56.40;;;;;;4954516;29;20458;-66
2021/09/29 09:42:56;;;;;;;1.13;0.87;;;30.90;56.60;;;;;;4954348;29;20488;-66
2021/09/29 09:45:46;;;;;;;2.20;2.00;;;29.70;57.60;;;;;;4962330;28;20775;-66
2021/09/29 09:48:22;;;;;;;1.07;0.83;;;28.70;59.40;;;;;;4940194;29;20800;-66
2021/09/29 09:50:53;;;;;;;0.90;0.90;;;28.40;60.30;;;;;;4959718;28;20802;-66
2021/09/29 09:53:20;;;;;;;0.70;0.70;;;28.40;61.70;;;;;;4973850;28;20474;-66
2021/09/29 09:55:45;;;;;;;0.87;0.87;;;28.20;59.70;;;;;;4973804;28;20420;-66
2021/09/29 09:58:11;;;;;;;0.90;0.70;;;27.60;60.70;;;;;;4953049;28;20409;-65
2021/09/29 10:00:37;;;;;;;1.50;1.20;;;26.80;62.90;;;;;;4954529;29;20270;-66
2021/09/29 10:03:03;;;;;;;0.80;0.80;;;26.00;65.90;;;;;;4956381;28;20187;-69
2021/09/29 10:05:30;;;;;;;3.37;1.57;;;25.40;67.40;;;;;;4958471;28;20179;-67
2021/09/29 10:07:57;;;;;;;1.83;0.80;;;24.70;69.30;;;;;;4957903;28;20405;-68
2021/09/29 10:13:53;;;;;;;1.53;0.80;;;23.30;72.20;;;;;;4958319;28;20492;-67
2021/09/29 10:28:01;;;;;;;1.00;1.00;;;21.90;80.00;;;;;;4974670;28;20482;-67
2021/09/29 10:33:26;;;;;;;0.70;0.70;;;22.40;80.10;;;;;;4961149;28;20416;-66
2021/09/29 10:42:03;;;;;;;1.53;1.20;;;22.40;80.00;;;;;;4938431;29;20527;-66
2021/09/29 10:47:31;;;;;;;1.37;0.97;;;21.90;80.60;;;;;;4974407;28;20940;-66
2021/09/29 10:50:26;;;;;;;6.37;0.77;;;22.00;80.20;;;;;;4976081;28;20463;-66
2021/09/29 11:30:34;;;;;;;0.60;0.53;;;21.20;81.70;;;;;;4956197;29;20433;-67
2021/09/29 11:33:22;;;;;;;0.60;0.60;;;21.20;82.10;;;;;;4956257;29;20183;-66
2021/09/29 12:12:17;;;;;;;0.57;0.57;;;21.30;80.00;;;;;;4974892;28;20537;-68
2021/09/29 12:14:55;;;;;;;3.20;0.60;;;21.40;79.20;;;;;;4974690;28;20752;-67
2021/09/29 12:17:29;;;;;;;0.97;0.63;;;21.40;80.10;;;;;;4936035;29;20901;-68
2021/09/29 12:19:58;;;;;;;0.40;0.40;;;21.50;78.60;;;;;;4936576;29;20747;-69
2021/09/29 12:22:26;;;;;;;0.40;0.40;;;21.60;79.10;;;;;;4938690;28;20774;-73
2021/09/29 12:24:58;;;;;;;0.80;0.80;;;21.80;78.40;;;;;;4957465;28;20419;-67
2021/09/29 12:28:02;;;;;;;0.30;0.30;;;21.90;76.90;;;;;;4963672;28;20430;-67
2021/09/29 12:30:37;;;;;;;0.30;0.30;;;21.90;76.60;;;;;;4973578;28;20498;-68
2021/09/29 12:38:02;;;;;;;4.30;0.53;;;21.70;78.40;;;;;;4955054;29;20419;-69
2021/09/29 12:40:31;;;;;;;1.40;0.77;;;21.70;77.50;;;;;;4955425;28;20466;-71
2021/09/29 12:43:01;;;;;;;0.90;0.67;;;21.60;76.90;;;;;;4955598;28;20425;-67
2021/09/29 12:45:31;;;;;;;0.43;0.43;;;21.50;77.20;;;;;;4970201;28;20424;-66
2021/09/29 12:47:58;;;;;;;0.43;0.43;;;21.50;78.60;;;;;;4963007;28;20516;-67
2021/09/29 12:50:28;;;;;;;0.97;0.90;;;21.60;78.30;;;;;;4970586;28;20494;-67
2021/09/29 12:52:59;;;;;;;0.63;0.63;;;21.60;77.00;;;;;;4974554;28;20779;-66
2021/09/29 12:55:34;;;;;;;0.50;0.50;;;21.50;77.60;;;;;;4974288;28;20427;-66
2021/09/29 12:58:00;;;;;;;0.60;0.50;;;21.40;79.10;;;;;;4973313;28;20498;-66
2021/09/29 13:00:25;;;;;;;0.50;0.50;;;21.30;79.00;;;;;;4974444;28;20418;-67
2021/09/29 13:02:51;;;;;;;0.50;0.50;;;21.30;79.90;;;;;;4974040;28;20674;-67
2021/09/29 13:05:17;;;;;;;0.70;0.40;;;21.20;80.70;;;;;;4950192;29;20276;-67
2021/09/29 13:07:42;;;;;;;2.30;0.70;;;21.20;80.50;;;;;;4954802;29;20280;-66
2021/09/29 13:10:09;;;;;;;6.53;0.90;;;21.10;80.20;;;;;;4954734;29;20596;-67
2021/09/29 13:12:35;;;;;;;1.43;0.70;;;21.10;80.10;;;;;;4937840;29;20255;-67
2021/09/29 13:15:00;;;;;;;0.90;0.50;;;21.00;80.50;;;;;;4955069;29;20515;-66
2021/09/29 13:17:28;;;;;;;0.80;0.70;;;21.00;81.50;;;;;;4954663;29;20179;-66
2021/09/29 13:19:59;;;;;;;0.60;0.60;;;20.90;81.70;;;;;;4954794;28;20205;-66
2021/09/29 13:22:26;;;;;;;0.40;0.40;;;20.90;81.80;;;;;;4955014;29;20394;-68
2021/09/29 13:25:00;;;;;;;0.77;0.70;;;21.00;81.80;;;;;;4954953;29;20519;-66
2021/09/29 13:38:07;;;;;;;0.77;0.30;;;21.70;82.00;;;;;;4976854;28;20487;-66
2021/09/29 13:40:32;;;;;;;0.40;0.40;;;21.60;81.20;;;;;;4977730;28;20507;-67
2021/09/29 13:42:58;;;;;;;0.57;0.50;;;21.60;81.20;;;;;;4977971;28;20177;-67
2021/09/29 13:45:24;;;;;;;1.97;0.53;;;21.30;82.20;;;;;;4973926;28;20184;-67
2021/09/29 13:47:49;;;;;;;1.30;0.93;;;21.10;83.20;;;;;;4975420;28;20207;-67
2021/09/29 13:50:16;;;;;;;1.03;0.93;;;20.80;84.20;;;;;;4958077;29;20299;-66
2021/09/29 13:52:42;;;;;;;2.33;0.90;;;20.50;86.30;;;;;;4958522;29;20188;-66
2021/09/29 13:55:13;;;;;;;0.70;0.70;;;20.30;89.50;;;;;;4958242;29;20420;-67
2021/09/29 13:57:52;;;;;;;0.70;0.70;;;20.00;91.30;;;;;;4958119;29;20176;-68
2021/09/29 14:00:30;;;;;;;0.50;0.50;;;19.60;93.20;;;;;;4958045;28;20430;-66
2021/09/29 14:30:27;;;;;;;0.50;0.50;;;17.80;99.90;;;;;;4976989;28;20459;-66
2021/09/29 14:32:58;;;;;;;1.57;0.40;;;17.40;99.90;;;;;;4977098;28;20421;-66
2021/09/29 14:35:24;;;;;;;0.40;0.30;;;17.10;99.90;;;;;;4976806;28;20750;-68
2021/09/29 14:37:50;;;;;;;0.30;0.30;;;16.90;99.90;;;;;;4973874;28;20435;-67
2021/09/29 14:40:18;;;;;;;0.50;0.40;;;16.70;99.70;;;;;;4957793;29;20578;-67
2021/09/29 14:42:44;;;;;;;0.40;0.40;;;16.50;99.00;;;;;;4957442;29;20422;-67
2021/09/29 14:45:11;;;;;;;0.97;0.63;;;16.30;98.30;;;;;;4957550;28;20457;-67
2021/09/29 14:47:37;;;;;;;0.50;0.50;;;16.20;99.60;;;;;;4956884;29;20986;-66
2021/09/29 14:50:04;;;;;;;0.40;0.40;;;16.10;99.90;;;;;;4923168;29;20235;-67
2021/09/29 14:52:30;;;;;;;0.30;0.27;;;16.00;99.90;;;;;;4940160;29;20429;-66
2021/09/29 14:54:55;;;;;;;0.40;0.40;;;15.90;99.90;;;;;;4940476;29;20459;-67
2021/09/29 14:57:21;;;;;;;0.60;0.60;;;15.80;99.90;;;;;;4956959;29;20183;-66
2021/09/29 14:59:47;;;;;;;0.87;0.60;;;15.60;99.90;;;;;;4963784;28;20196;-68
2021/09/29 15:02:14;;;;;;;0.30;0.30;;;15.60;99.90;;;;;;4958991;28;20187;-66
2021/09/29 15:04:40;;;;;;;1.40;1.03;;;15.40;99.90;;;;;;4977037;28;20202;-66
2021/09/29 15:07:06;;;;;;;0.63;0.63;;;15.40;99.90;;;;;;4976460;28;20925;-67
2021/09/29 15:09:31;;;;;;;0.30;0.30;;;15.30;99.90;;;;;;4976046;28;20235;-66
2021/09/29 15:11:57;;;;;;;0.57;0.40;;;15.30;99.90;;;;;;4976048;28;20658;-66
2021/09/29 15:14:43;;;;;;;0.40;0.40;;;15.20;99.90;;;;;;4969905;28;20495;-66
2021/09/29 15:17:13;;;;;;;0.43;0.43;;;15.20;99.90;;;;;;4964968;28;20172;-66
2021/09/29 15:19:48;;;;;;;0.50;0.50;;;15.20;99.90;;;;;;4975963;28;20490;-71
2021/09/29 15:25:10;;;;;;;0.40;0.40;;;15.20;99.90;;;;;;4976044;28;20527;-73
2021/09/29 15:29:43;;;;;;;1.13;0.60;;;15.10;99.90;;;;;;4976650;28;20423;-76
2021/09/29 15:46:58;;;;;;;0.50;0.40;;;15.20;99.90;;;;;;4961165;28;20572;-71
2021/09/29 15:49:32;;;;;;;1.07;0.60;;;15.20;99.90;;;;;;4955990;29;20470;-70
2021/09/29 15:57:17;;;;;;;2.80;2.60;;;15.10;99.90;;;;;;4955925;29;20413;-75
2021/09/29 16:31:41;;;;;;;0.87;0.87;;;15.10;99.90;;;;;;4966538;28;20433;-73
2021/09/29 16:37:02;;;;;;;1.43;0.80;;;15.00;99.90;;;;;;4965613;28;20505;-74
2021/09/29 16:39:44;;;;;;;;;;;;;;;;;;;;;
2021/09/29 16:42:19;;;;;;;1.17;1.07;;;14.90;99.90;;;;;;4950112;29;20413;-77
2021/09/29 16:44:48;;;;;;;3.60;3.30;;;14.90;99.90;;;;;;4955289;29;20514;-74
2021/09/29 16:47:17;;;;;;;1.00;0.63;;;14.90;99.90;;;;;;4955029;29;20180;-73
2021/09/29 16:53:14;;;;;;;1.70;1.10;;;14.80;99.90;;;;;;4964772;28;20437;-78
2021/09/29 16:55:44;;;;;;;1.80;1.70;;;14.80;99.90;;;;;;4975130;28;20438;-72